createdAt,value
2022-11-26T00:02:28.014Z,5.53
2022-11-26T00:07:51.923Z,5.63
2022-11-26T00:13:33.169Z,5.69
2022-11-26T00:19:00.910Z,5.77
2022-11-26T00:24:42.875Z,5.81
2022-11-26T00:30:08.887Z,5.85
2022-11-26T00:35:35.887Z,5.85
2022-11-26T00:41:00.910Z,5.85
2022-11-26T00:46:28.909Z,5.93
2022-11-26T00:51:56.889Z,5.98
2022-11-26T00:57:20.872Z,5.98
2022-11-26T01:02:45.945Z,6.01
2022-11-26T01:08:14.897Z,6.04
2022-11-26T01:13:46.921Z,6.05
2022-11-26T01:19:11.891Z,6.04
2022-11-26T01:24:39.137Z,6.05
2022-11-26T01:30:03.899Z,6.00
2022-11-26T01:35:28.904Z,6.01
2022-11-26T01:41:18.915Z,6.00
2022-11-26T01:46:49.900Z,6.00
2022-11-26T01:52:21.928Z,5.93
2022-11-26T01:57:48.950Z,5.89
2022-11-26T02:03:14.937Z,5.87
2022-11-26T02:08:43.237Z,5.82
2022-11-26T02:14:13.917Z,5.79
2022-11-26T02:20:07.936Z,5.83
2022-11-26T02:25:43.032Z,5.84
2022-11-26T02:31:15.957Z,5.85
2022-11-26T02:36:50.237Z,5.85
2022-11-26T02:42:16.032Z,5.85
2022-11-26T02:47:46.928Z,5.81
2022-11-26T02:53:14.042Z,5.73
2022-11-26T02:58:39.936Z,5.65
2022-11-26T03:04:10.016Z,5.62
2022-11-26T03:09:34.973Z,5.64
2022-11-26T03:15:06.771Z,5.69
2022-11-26T03:20:34.942Z,5.76
2022-11-26T03:25:58.973Z,5.80
2022-11-26T03:31:24.102Z,5.90
2022-11-26T03:36:50.962Z,6.04
2022-11-26T03:42:16.257Z,6.12
2022-11-26T03:47:41.023Z,6.15
2022-11-26T03:53:08.966Z,6.08
2022-11-26T03:58:32.981Z,6.07
2022-11-26T04:03:57.997Z,6.01
2022-11-26T04:09:25.003Z,6.02
2022-11-26T04:14:56.047Z,5.98
2022-11-26T04:20:22.014Z,5.97
2022-11-26T04:25:48.988Z,5.96
2022-11-26T04:31:14.348Z,5.96
2022-11-26T04:36:38.094Z,5.94
2022-11-26T04:42:06.186Z,5.93
2022-11-26T04:47:31.023Z,5.91
2022-11-26T04:52:56.026Z,5.93
2022-11-26T04:58:23.004Z,5.93
2022-11-26T05:03:48.094Z,5.93
2022-11-26T05:09:11.993Z,5.95
2022-11-26T05:14:47.024Z,5.93
2022-11-26T05:20:13.068Z,5.93
2022-11-26T05:25:37.041Z,5.86
2022-11-26T05:31:11.025Z,5.83
2022-11-26T05:36:36.002Z,5.80
2022-11-26T05:42:04.805Z,5.77
2022-11-26T05:47:29.038Z,5.70
2022-11-26T05:52:54.131Z,5.61
2022-11-26T05:58:19.023Z,5.51
2022-11-26T06:03:48.102Z,5.39
2022-11-26T06:09:14.059Z,5.36
2022-11-26T06:14:45.500Z,5.38
2022-11-26T06:20:13.024Z,5.34
2022-11-26T06:25:37.080Z,5.31
2022-11-26T06:31:02.251Z,5.25
2022-11-26T06:36:29.044Z,5.21
2022-11-26T06:41:54.078Z,5.16
2022-11-26T06:47:19.321Z,5.05
2022-11-26T06:52:47.098Z,4.97
2022-11-26T06:58:11.050Z,4.88
2022-11-26T07:03:36.069Z,4.76
2022-11-26T07:09:04.958Z,4.66
2022-11-26T07:14:36.374Z,4.57
2022-11-26T07:20:01.088Z,4.52
2022-11-26T07:25:28.084Z,4.49
2022-11-26T07:30:53.294Z,4.45
2022-11-26T07:36:19.072Z,4.42
2022-11-26T07:41:47.430Z,4.38
2022-11-26T07:47:11.093Z,4.34
2022-11-26T07:52:36.090Z,4.34
2022-11-26T07:58:03.087Z,4.35
2022-11-26T08:03:28.100Z,4.35
2022-11-26T08:08:53.115Z,4.36
2022-11-26T08:14:28.102Z,4.39
2022-11-26T08:19:53.100Z,4.41
2022-11-26T08:25:17.243Z,4.44
2022-11-26T08:30:45.087Z,4.50
2022-11-26T08:36:10.117Z,4.56
2022-11-26T08:41:35.101Z,4.64
2022-11-26T08:47:02.310Z,4.72
2022-11-26T08:52:27.100Z,4.84
2022-11-26T08:57:51.277Z,4.96
2022-11-26T09:03:19.162Z,5.12
2022-11-26T09:09:03.128Z,5.29
2022-11-26T09:14:37.591Z,5.55
2022-11-26T09:20:13.254Z,5.86
2022-11-26T09:25:38.135Z,6.10
2022-11-26T09:31:03.108Z,6.27
2022-11-26T09:36:31.140Z,6.38
2022-11-26T09:42:03.146Z,6.45
2022-11-26T09:47:29.172Z,6.40
2022-11-26T09:53:01.148Z,6.46
2022-11-26T09:58:31.169Z,6.36
2022-11-26T10:03:55.139Z,6.40
2022-11-26T10:09:55.150Z,6.53
2022-11-26T10:15:32.125Z,6.70
2022-11-26T10:21:07.138Z,6.91
2022-11-26T10:26:39.165Z,7.06
2022-11-26T10:32:08.168Z,7.19
2022-11-26T10:37:33.190Z,7.45
2022-11-26T10:43:09.156Z,7.63
2022-11-26T10:48:39.167Z,7.71
2022-11-26T10:54:06.140Z,7.80
2022-11-26T10:59:41.822Z,7.89
2022-11-26T11:05:11.176Z,7.93
2022-11-26T11:10:37.219Z,8.04
2022-11-26T11:16:18.240Z,8.02
2022-11-26T11:21:48.117Z,8.23
2022-11-26T11:27:14.187Z,8.33
2022-11-26T11:32:45.189Z,8.32
2022-11-26T11:38:11.178Z,8.40
2022-11-26T11:43:37.393Z,8.35
2022-11-26T11:49:21.190Z,8.40
2022-11-26T11:54:59.165Z,8.36
2022-11-26T12:00:29.204Z,8.28
2022-11-26T12:06:22.186Z,8.26
2022-11-26T12:11:58.278Z,8.35
2022-11-26T12:17:32.935Z,8.36
2022-11-26T12:23:10.268Z,8.40
2022-11-26T12:28:46.888Z,8.46
2022-11-26T12:34:22.189Z,8.33
2022-11-26T12:39:59.289Z,8.26
2022-11-26T12:45:35.349Z,8.25
2022-11-26T12:51:04.234Z,8.36
2022-11-26T12:56:38.208Z,8.36
2022-11-26T13:02:03.292Z,8.31
2022-11-26T13:07:39.370Z,8.27
2022-11-26T13:13:25.248Z,8.29
2022-11-26T13:18:54.205Z,8.34
2022-11-26T13:24:46.241Z,8.32
2022-11-26T13:30:22.262Z,8.08
2022-11-26T13:36:12.260Z,7.88
2022-11-26T13:42:09.261Z,7.79
2022-11-26T13:47:40.275Z,7.70
2022-11-26T13:53:13.441Z,7.63
2022-11-26T13:58:41.275Z,7.60
2022-11-26T14:04:10.234Z,7.46
2022-11-26T14:10:03.234Z,7.40
2022-11-26T14:16:12.288Z,7.23
2022-11-26T14:21:40.255Z,7.15
2022-11-26T14:27:04.275Z,7.13
2022-11-26T14:32:33.283Z,7.00
2022-11-26T14:38:06.253Z,6.90
2022-11-26T14:43:31.310Z,6.81
2022-11-26T14:49:01.258Z,6.69
2022-11-26T14:54:36.363Z,6.56
2022-11-26T15:00:15.299Z,6.43
2022-11-26T15:05:45.130Z,6.33
2022-11-26T15:11:21.377Z,6.26
2022-11-26T15:16:54.000Z,6.17
2022-11-26T15:22:22.298Z,6.14
2022-11-26T15:27:58.312Z,6.12
2022-11-26T15:33:29.286Z,6.16
2022-11-26T15:39:13.304Z,6.19
2022-11-26T15:44:43.333Z,6.19
2022-11-26T15:50:10.322Z,6.17
2022-11-26T15:55:38.296Z,6.15
2022-11-26T16:01:09.347Z,6.10
2022-11-26T16:06:46.299Z,6.08
2022-11-26T16:12:11.296Z,6.07
2022-11-26T16:17:38.311Z,5.99
2022-11-26T16:23:05.308Z,5.84
2022-11-26T16:28:30.314Z,5.71
2022-11-26T16:33:58.323Z,5.58
2022-11-26T16:39:28.792Z,5.44
2022-11-26T16:45:00.097Z,5.30
2022-11-26T16:50:32.345Z,5.08
2022-11-26T16:55:58.356Z,5.00
2022-11-26T17:01:22.344Z,4.86
2022-11-26T17:06:51.360Z,4.84
2022-11-26T17:12:15.355Z,4.86
2022-11-26T17:17:40.357Z,4.91
2022-11-26T17:23:07.361Z,4.96
2022-11-26T17:28:33.344Z,4.96
2022-11-26T17:33:59.455Z,4.90
2022-11-26T17:39:27.426Z,4.84
2022-11-26T17:44:51.379Z,4.75
2022-11-26T17:50:20.336Z,4.70
2022-11-26T17:55:47.373Z,4.66
2022-11-26T18:01:12.477Z,4.59
2022-11-26T18:06:48.463Z,4.50
2022-11-26T18:12:25.396Z,4.35
2022-11-26T18:17:57.340Z,4.19
2022-11-26T18:23:22.448Z,4.14
2022-11-26T18:28:50.364Z,4.05
2022-11-26T18:34:15.387Z,4.07
2022-11-26T18:39:40.760Z,4.07
2022-11-26T18:45:07.349Z,3.95
2022-11-26T18:50:32.399Z,3.92
2022-11-26T18:55:56.392Z,3.88
2022-11-26T19:01:26.490Z,3.78
2022-11-26T19:06:50.381Z,3.72
2022-11-26T19:12:16.483Z,3.64
2022-11-26T19:17:44.454Z,3.54
2022-11-26T19:23:09.374Z,3.49
2022-11-26T19:28:33.391Z,3.41
2022-11-26T19:34:05.392Z,3.32
2022-11-26T19:39:30.454Z,3.29
2022-11-26T19:44:55.444Z,3.23
2022-11-26T19:50:24.399Z,3.19
2022-11-26T19:55:49.409Z,3.14
2022-11-26T20:01:14.483Z,3.08
2022-11-26T20:06:44.424Z,3.03
2022-11-26T20:12:08.434Z,2.98
2022-11-26T20:17:33.431Z,2.94
2022-11-26T20:23:00.420Z,2.89
2022-11-26T20:28:25.417Z,2.84
2022-11-26T20:33:50.405Z,2.82
2022-11-26T20:39:23.433Z,2.81
2022-11-26T20:44:47.423Z,2.78
2022-11-26T20:50:13.533Z,2.75
2022-11-26T20:55:40.428Z,2.69
2022-11-26T21:01:05.471Z,2.63
2022-11-26T21:06:30.915Z,2.56
2022-11-26T21:11:58.508Z,2.49
2022-11-26T21:17:29.461Z,2.44
2022-11-26T21:22:54.456Z,2.36
2022-11-26T21:28:26.474Z,2.36
2022-11-26T21:33:52.425Z,2.35
2022-11-26T21:39:18.438Z,2.31
2022-11-26T21:44:46.500Z,2.31
2022-11-26T21:50:10.444Z,2.28
2022-11-26T21:55:35.449Z,2.21
2022-11-26T22:01:02.537Z,2.17
2022-11-26T22:06:29.431Z,2.14
2022-11-26T22:11:56.547Z,2.14
2022-11-26T22:17:30.449Z,2.13
2022-11-26T22:22:56.471Z,2.07
2022-11-26T22:28:21.429Z,2.06
2022-11-26T22:33:51.508Z,2.03
2022-11-26T22:39:18.509Z,1.97
2022-11-26T22:44:43.485Z,1.94
2022-11-26T22:50:10.484Z,1.94
2022-11-26T22:55:35.488Z,1.94
2022-11-26T23:01:05.638Z,1.94
2022-11-26T23:06:35.502Z,1.94
2022-11-26T23:12:00.489Z,1.93
2022-11-26T23:17:32.505Z,1.97
2022-11-26T23:23:00.793Z,1.97
2022-11-26T23:28:24.540Z,2.00
2022-11-26T23:33:49.711Z,2.00
2022-11-26T23:39:21.513Z,1.97
2022-11-26T23:44:46.473Z,1.94
2022-11-26T23:50:10.481Z,1.90
2022-11-26T23:55:39.504Z,1.86
